Time,TemperatureF,DewpointF,PressureIn,WindDirection,WindDirectionDegrees,WindSpeedMPH,WindSpeedGustMPH,Humidity,HourlyPrecipIn,Conditions,Clouds,dailyrainin,SoftwareType,DateUTC
2013-06-12 00:02:00,55.0,50.0,29.71,South,190,6.0,16.0,84,0.00,,,0.03,,2013-06-12 06:02:00,
2013-06-12 00:12:00,55.0,50.0,29.71,South,190,6.0,16.0,84,0.00,,,0.03,,2013-06-12 06:12:00,
2013-06-12 00:22:00,55.0,50.0,29.72,SSW,192,0.0,4.0,84,0.00,,,0.03,,2013-06-12 06:22:00,
2013-06-12 00:32:00,55.0,51.0,29.72,SSW,192,2.0,4.0,85,0.00,,,0.03,,2013-06-12 06:32:00,
2013-06-12 00:42:00,55.0,51.0,29.72,SSW,192,2.0,4.0,85,0.00,,,0.03,,2013-06-12 06:42:00,
2013-06-12 00:52:00,55.0,50.0,29.73,SSW,192,0.0,3.0,84,0.00,,,0.03,,2013-06-12 06:52:00,
2013-06-12 01:02:00,54.0,50.0,29.73,SSW,192,1.0,2.0,85,0.00,,,0.03,,2013-06-12 07:02:00,
2013-06-12 01:12:00,54.0,50.0,29.73,SSW,193,2.0,6.0,85,0.00,,,0.03,,2013-06-12 07:12:00,
2013-06-12 01:22:00,53.0,49.0,29.74,SSW,213,3.0,5.0,85,0.00,,,0.03,,2013-06-12 07:22:00,
2013-06-12 01:33:00,53.0,49.0,29.74,SSW,213,3.0,5.0,85,0.00,,,0.03,,2013-06-12 07:33:00,
2013-06-12 01:43:00,53.0,50.0,29.74,SSW,213,0.0,2.0,88,0.00,,,0.03,,2013-06-12 07:43:00,
2013-06-12 01:53:00,52.0,49.0,29.74,SSW,213,0.0,0.0,88,0.00,,,0.03,,2013-06-12 07:53:00,
2013-06-12 02:02:00,52.0,49.0,29.74,SSW,213,0.0,0.0,88,0.00,,,0.03,,2013-06-12 08:02:00,
2013-06-12 02:12:00,52.0,49.0,29.74,SSW,213,0.0,0.0,88,0.00,,,0.03,,2013-06-12 08:12:00,
2013-06-12 02:22:00,52.0,49.0,29.75,SSW,213,3.0,5.0,88,0.00,,,0.03,,2013-06-12 08:22:00,
2013-06-12 02:33:00,52.0,49.0,29.75,SSW,213,3.0,5.0,88,0.00,,,0.03,,2013-06-12 08:33:00,
2013-06-12 02:43:00,51.0,48.0,29.75,WNW,298,4.0,9.0,88,0.00,,,0.03,,2013-06-12 08:43:00,
2013-06-12 02:53:00,51.0,48.0,29.75,WNW,298,3.0,5.0,89,0.00,,,0.03,,2013-06-12 08:53:00,
2013-06-12 03:01:00,51.0,48.0,29.75,WNW,298,3.0,5.0,89,0.00,,,0.03,,2013-06-12 09:01:00,
2013-06-12 03:11:00,51.0,48.0,29.75,WNW,300,4.0,6.0,89,0.00,,,0.03,,2013-06-12 09:11:00,
2013-06-12 03:22:00,51.0,48.0,29.74,West,277,1.0,5.0,88,0.00,,,0.03,,2013-06-12 09:22:00,
2013-06-12 03:33:00,51.0,48.0,29.74,West,277,1.0,5.0,88,0.00,,,0.03,,2013-06-12 09:33:00,
2013-06-12 03:42:00,51.0,48.0,29.74,West,277,0.0,5.0,88,0.00,,,0.03,,2013-06-12 09:42:00,
2013-06-12 03:53:00,51.0,48.0,29.75,West,277,0.0,4.0,89,0.00,,,0.03,,2013-06-12 09:53:00,
2013-06-12 04:01:00,51.0,48.0,29.75,West,277,0.0,4.0,89,0.00,,,0.03,,2013-06-12 10:01:00,
2013-06-12 04:11:00,51.0,47.0,29.75,WNW,295,2.0,5.0,87,0.00,,,0.03,,2013-06-12 10:11:00,
2013-06-12 04:23:00,52.0,48.0,29.75,WNW,303,4.0,6.0,86,0.00,,,0.03,,2013-06-12 10:23:00,
2013-06-12 04:33:00,52.0,48.0,29.75,WNW,303,4.0,6.0,86,0.00,,,0.03,,2013-06-12 10:33:00,
2013-06-12 04:43:00,52.0,47.0,29.76,NW,314,6.0,8.0,84,0.00,,,0.03,,2013-06-12 10:43:00,
2013-06-12 04:53:00,53.0,48.0,29.77,NNW,339,2.0,6.0,84,0.00,,,0.03,,2013-06-12 10:53:00,
2013-06-12 05:02:00,53.0,48.0,29.77,NNW,339,2.0,6.0,84,0.00,,,0.03,,2013-06-12 11:02:00,
2013-06-12 05:12:00,52.0,48.0,29.78,North,5,0.0,3.0,85,0.00,,,0.03,,2013-06-12 11:12:00,
2013-06-12 05:24:00,51.0,47.0,29.78,North,5,0.0,2.0,86,0.00,,,0.03,,2013-06-12 11:24:00,
2013-06-12 05:33:00,51.0,47.0,29.78,North,5,0.0,2.0,86,0.00,,,0.03,,2013-06-12 11:33:00,
2013-06-12 05:43:00,50.0,47.0,29.78,North,5,2.0,3.0,88,0.00,,,0.03,,2013-06-12 11:43:00,
2013-06-12 05:53:00,50.0,47.0,29.78,NW,320,4.0,7.0,90,0.00,,,0.03,,2013-06-12 11:53:00,
2013-06-12 06:01:00,50.0,47.0,29.78,NW,320,4.0,7.0,90,0.00,,,0.03,,2013-06-12 12:01:00,
2013-06-12 06:11:00,50.0,47.0,29.78,WNW,302,4.0,7.0,89,0.00,,,0.03,,2013-06-12 12:11:00,
2013-06-12 06:23:00,50.0,47.0,29.79,WNW,302,1.0,5.0,88,0.00,,,0.03,,2013-06-12 12:23:00,
2013-06-12 06:33:00,50.0,47.0,29.79,WNW,302,1.0,5.0,88,0.00,,,0.03,,2013-06-12 12:33:00,
2013-06-12 06:42:00,51.0,48.0,29.79,WNW,302,2.0,4.0,88,0.00,,,0.03,,2013-06-12 12:42:00,
2013-06-12 06:53:00,52.0,49.0,29.80,NW,318,2.0,4.0,89,0.00,,,0.03,,2013-06-12 12:53:00,
2013-06-12 07:01:00,52.0,49.0,29.80,NW,318,2.0,4.0,89,0.00,,,0.03,,2013-06-12 13:01:00,
2013-06-12 07:12:00,53.0,49.0,29.80,WNW,286,0.0,3.0,87,0.00,,,0.03,,2013-06-12 13:12:00,
2013-06-12 07:22:00,54.0,49.0,29.80,WNW,286,0.0,1.0,84,0.00,,,0.03,,2013-06-12 13:22:00,
2013-06-12 07:32:00,54.0,49.0,29.80,WNW,286,0.0,1.0,84,0.00,,,0.03,,2013-06-12 13:32:00,
2013-06-12 07:43:00,55.0,50.0,29.80,West,269,0.0,1.0,83,0.00,,,0.03,,2013-06-12 13:43:00,
2013-06-12 07:53:00,57.0,51.0,29.80,West,263,1.0,2.0,79,0.00,,,0.03,,2013-06-12 13:53:00,
2013-06-12 08:02:00,57.0,51.0,29.80,West,263,1.0,2.0,79,0.00,,,0.03,,2013-06-12 14:02:00,
2013-06-12 08:11:00,56.0,50.0,29.81,ESE,122,3.0,5.0,81,0.00,,,0.03,,2013-06-12 14:11:00,
2013-06-12 08:24:00,56.0,50.0,29.81,ESE,122,3.0,5.0,81,0.00,,,0.03,,2013-06-12 14:24:00,
2013-06-12 08:33:00,56.0,50.0,29.81,ESE,122,3.0,5.0,81,0.00,,,0.03,,2013-06-12 14:33:00,
2013-06-12 08:43:00,55.0,51.0,29.80,SW,218,0.0,4.0,87,0.01,,,0.04,,2013-06-12 14:43:00,
2013-06-12 08:53:00,54.0,50.0,29.80,SW,218,0.0,3.0,86,0.01,,,0.04,,2013-06-12 14:53:00,
2013-06-12 09:01:00,54.0,50.0,29.80,SW,218,0.0,3.0,86,0.01,,,0.04,,2013-06-12 15:01:00,
2013-06-12 09:12:00,55.0,51.0,29.79,South,174,0.0,2.0,86,0.01,,,0.04,,2013-06-12 15:12:00,
2013-06-12 09:23:00,55.0,51.0,29.79,South,174,0.0,2.0,86,0.01,,,0.04,,2013-06-12 15:23:00,
2013-06-12 09:33:00,55.0,51.0,29.79,South,174,0.0,2.0,86,0.01,,,0.04,,2013-06-12 15:33:00,
2013-06-12 09:43:00,57.0,52.0,29.77,SW,229,1.0,5.0,82,0.00,,,0.04,,2013-06-12 15:43:00,
2013-06-12 09:52:00,59.0,53.0,29.77,SW,229,2.0,3.0,81,0.00,,,0.04,,2013-06-12 15:52:00,
2013-06-12 10:01:00,59.0,53.0,29.77,SW,229,2.0,3.0,81,0.00,,,0.04,,2013-06-12 16:01:00,
2013-06-12 10:11:00,59.0,53.0,29.77,SW,229,2.0,3.0,81,0.00,,,0.04,,2013-06-12 16:11:00,
2013-06-12 10:22:00,61.0,52.0,29.77,ESE,115,1.0,3.0,71,0.00,,,0.04,,2013-06-12 16:22:00,
2013-06-12 10:32:00,61.0,52.0,29.77,ESE,115,1.0,3.0,71,0.00,,,0.04,,2013-06-12 16:32:00,
2013-06-12 10:43:00,61.0,52.0,29.77,ESE,115,1.0,3.0,71,0.00,,,0.04,,2013-06-12 16:43:00,
2013-06-12 10:52:00,63.0,51.0,29.75,ENE,78,3.0,7.0,65,0.00,,,0.04,,2013-06-12 16:52:00,
2013-06-12 11:01:00,63.0,51.0,29.75,ENE,78,3.0,7.0,65,0.00,,,0.04,,2013-06-12 17:01:00,
2013-06-12 11:11:00,63.0,53.0,29.76,ENE,61,5.0,8.0,69,0.00,,,0.04,,2013-06-12 17:11:00,
2013-06-12 11:22:00,63.0,52.0,29.78,ENE,71,4.0,7.0,68,0.00,,,0.04,,2013-06-12 17:22:00,
2013-06-12 11:33:00,63.0,52.0,29.78,ENE,71,4.0,7.0,68,0.00,,,0.04,,2013-06-12 17:33:00,
2013-06-12 11:42:00,63.0,52.0,29.78,ENE,71,4.0,7.0,68,0.00,,,0.04,,2013-06-12 17:42:00,
2013-06-12 11:52:00,63.0,52.0,29.80,NNE,15,4.0,10.0,67,0.00,,,0.04,,2013-06-12 17:52:00,
2013-06-12 12:02:00,63.0,52.0,29.80,NNE,15,4.0,10.0,67,0.00,,,0.04,,2013-06-12 18:02:00,
2013-06-12 12:12:00,64.0,52.0,29.80,North,355,5.0,11.0,66,0.00,,,0.04,,2013-06-12 18:12:00,
2013-06-12 12:22:00,64.0,52.0,29.80,North,355,5.0,11.0,66,0.00,,,0.04,,2013-06-12 18:22:00,
2013-06-12 12:32:00,64.0,52.0,29.80,North,355,5.0,11.0,66,0.00,,,0.04,,2013-06-12 18:32:00,
2013-06-12 12:43:00,65.0,51.0,29.79,NE,39,1.0,7.0,61,0.00,,,0.04,,2013-06-12 18:43:00,
2013-06-12 12:53:00,66.0,52.0,29.78,NW,307,1.0,5.0,61,0.00,,,0.04,,2013-06-12 18:53:00,
2013-06-12 13:01:00,66.0,52.0,29.78,NW,307,1.0,5.0,61,0.00,,,0.04,,2013-06-12 19:01:00,
2013-06-12 13:11:00,68.0,51.0,29.77,WSW,238,2.0,6.0,54,0.00,,,0.04,,2013-06-12 19:11:00,
2013-06-12 13:22:00,69.0,52.0,29.76,SE,142,2.0,6.0,54,0.00,,,0.04,,2013-06-12 19:22:00,
2013-06-12 13:32:00,69.0,52.0,29.76,SE,142,2.0,6.0,54,0.00,,,0.04,,2013-06-12 19:32:00,
2013-06-12 13:42:00,69.0,52.0,29.76,SE,142,2.0,6.0,54,0.00,,,0.04,,2013-06-12 19:42:00,
2013-06-12 13:52:00,70.0,52.0,29.76,SE,142,6.0,11.0,52,0.00,,,0.04,,2013-06-12 19:52:00,
2013-06-12 14:01:00,70.0,52.0,29.76,SE,142,6.0,11.0,52,0.00,,,0.04,,2013-06-12 20:01:00,
2013-06-12 14:11:00,71.0,52.0,29.75,NE,54,2.0,8.0,51,0.00,,,0.04,,2013-06-12 20:11:00,
2013-06-12 14:22:00,71.0,52.0,29.75,ENE,78,1.0,8.0,52,0.00,,,0.02,,2013-06-12 20:22:00,
2013-06-12 14:32:00,71.0,52.0,29.75,ENE,78,1.0,8.0,52,0.00,,,0.02,,2013-06-12 20:32:00,
2013-06-12 14:42:00,71.0,52.0,29.75,ENE,78,1.0,8.0,52,0.00,,,0.02,,2013-06-12 20:42:00,
2013-06-12 14:54:00,72.0,52.0,29.76,NE,53,7.0,14.0,49,0.00,,,0.02,,2013-06-12 20:54:00,
2013-06-12 15:01:00,72.0,52.0,29.76,NE,53,7.0,14.0,49,0.00,,,0.02,,2013-06-12 21:01:00,
2013-06-12 15:11:00,70.0,49.0,29.77,NNE,21,6.0,10.0,48,0.00,,,0.02,,2013-06-12 21:11:00,
2013-06-12 15:22:00,70.0,49.0,29.77,NNE,21,6.0,10.0,48,0.00,,,0.02,,2013-06-12 21:22:00,
2013-06-12 15:33:00,70.0,49.0,29.77,NNE,21,6.0,10.0,48,0.00,,,0.02,,2013-06-12 21:33:00,
2013-06-12 15:43:00,70.0,49.0,29.77,NNE,21,6.0,10.0,48,0.00,,,0.02,,2013-06-12 21:43:00,
2013-06-12 15:52:00,70.0,49.0,29.77,NNE,21,6.0,10.0,48,0.00,,,0.02,,2013-06-12 21:52:00,
2013-06-12 16:01:00,69.0,46.0,29.77,NE,44,7.0,14.0,44,0.00,,,0.02,,2013-06-12 22:01:00,
2013-06-12 16:11:00,70.0,49.0,29.77,NNE,24,7.0,13.0,48,0.00,,,0.02,,2013-06-12 22:11:00,
2013-06-12 16:22:00,70.0,49.0,29.77,NNE,24,7.0,13.0,48,0.00,,,0.02,,2013-06-12 22:22:00,
2013-06-12 16:32:00,70.0,49.0,29.77,NNE,24,7.0,13.0,48,0.00,,,0.02,,2013-06-12 22:32:00,
2013-06-12 16:43:00,67.0,49.0,29.80,NE,37,0.0,3.0,53,0.00,,,0.02,,2013-06-12 22:43:00,
2013-06-12 16:52:00,67.0,49.0,29.80,NE,37,0.0,3.0,53,0.00,,,0.02,,2013-06-12 22:52:00,
2013-06-12 17:02:00,68.0,52.0,29.80,SSW,209,6.0,9.0,56,0.00,,,0.02,,2013-06-12 23:02:00,
2013-06-12 17:12:00,68.0,45.0,29.77,NNE,24,3.0,9.0,44,0.00,,,0.02,,2013-06-12 23:12:00,
2013-06-12 17:22:00,68.0,45.0,29.77,NNE,24,3.0,9.0,44,0.00,,,0.02,,2013-06-12 23:22:00,
2013-06-12 17:32:00,69.0,44.0,29.74,WSW,255,2.0,6.0,40,0.00,,,0.02,,2013-06-12 23:32:00,
2013-06-12 17:42:00,70.0,45.0,29.72,South,182,4.0,7.0,41,0.00,,,0.02,,2013-06-12 23:42:00,
2013-06-12 17:52:00,70.0,45.0,29.72,South,182,4.0,7.0,41,0.00,,,0.02,,2013-06-12 23:52:00,
2013-06-12 18:01:00,71.0,50.0,29.73,East,85,10.0,14.0,47,0.00,,,0.02,,2013-06-13 00:01:00,
2013-06-12 18:11:00,70.0,50.0,29.73,ESE,104,11.0,15.0,50,0.00,,,0.02,,2013-06-13 00:11:00,
2013-06-12 18:22:00,70.0,50.0,29.73,ESE,104,11.0,15.0,50,0.00,,,0.02,,2013-06-13 00:22:00,
2013-06-12 18:32:00,70.0,49.0,29.73,ESE,103,10.0,14.0,48,0.00,,,0.02,,2013-06-13 00:32:00,
2013-06-12 18:42:00,69.0,47.0,29.72,ESE,117,6.0,14.0,46,0.00,,,0.02,,2013-06-13 00:42:00,
2013-06-12 18:52:00,69.0,47.0,29.72,ESE,117,6.0,14.0,46,0.00,,,0.02,,2013-06-13 00:52:00,
2013-06-12 19:01:00,69.0,47.0,29.70,East,94,10.0,14.0,46,0.00,,,0.02,,2013-06-13 01:01:00,
2013-06-12 19:12:00,69.0,46.0,29.68,East,86,9.0,14.0,44,0.00,,,0.02,,2013-06-13 01:12:00,
2013-06-12 19:22:00,69.0,46.0,29.68,East,86,9.0,14.0,44,0.00,,,0.02,,2013-06-13 01:22:00,
2013-06-12 19:32:00,69.0,46.0,29.68,East,86,9.0,14.0,44,0.00,,,0.02,,2013-06-13 01:32:00,
2013-06-12 19:43:00,70.0,45.0,29.67,NE,46,6.0,12.0,40,0.00,,,0.02,,2013-06-13 01:43:00,
2013-06-12 19:53:00,70.0,45.0,29.67,NE,46,6.0,12.0,40,0.00,,,0.02,,2013-06-13 01:53:00,
2013-06-12 20:01:00,71.0,41.0,29.68,SSE,162,2.0,6.0,34,0.00,,,0.02,,2013-06-13 02:01:00,
2013-06-12 20:12:00,71.0,42.0,29.68,East,88,10.0,24.0,35,0.00,,,0.02,,2013-06-13 02:12:00,
2013-06-12 20:22:00,71.0,42.0,29.68,East,88,10.0,24.0,35,0.00,,,0.02,,2013-06-13 02:22:00,
2013-06-12 20:33:00,70.0,39.0,29.66,NNE,15,9.0,17.0,32,0.00,,,0.02,,2013-06-13 02:33:00,
2013-06-12 20:42:00,71.0,38.0,29.68,SSW,199,10.0,33.0,30,0.00,,,0.02,,2013-06-13 02:42:00,
2013-06-12 20:52:00,71.0,38.0,29.68,SSW,199,10.0,33.0,30,0.00,,,0.02,,2013-06-13 02:52:00,
2013-06-12 21:02:00,71.0,38.0,29.67,SSE,148,8.0,19.0,30,0.00,,,0.02,,2013-06-13 03:02:00,
2013-06-12 21:11:00,70.0,38.0,29.67,NW,304,5.0,15.0,31,0.00,,,0.02,,2013-06-13 03:11:00,
2013-06-12 21:22:00,70.0,38.0,29.67,NW,304,5.0,15.0,31,0.00,,,0.02,,2013-06-13 03:22:00,
2013-06-12 21:33:00,69.0,39.0,29.67,NE,41,6.0,12.0,33,0.00,,,0.01,,2013-06-13 03:33:00,
2013-06-12 21:42:00,69.0,39.0,29.67,NE,41,6.0,12.0,33,0.00,,,0.01,,2013-06-13 03:42:00,
2013-06-12 21:52:00,69.0,39.0,29.67,NE,41,6.0,12.0,33,0.00,,,0.01,,2013-06-13 03:52:00,
2013-06-12 22:01:00,68.0,39.0,29.68,NNW,336,2.0,6.0,34,0.00,,,0.01,,2013-06-13 04:01:00,
2013-06-12 22:11:00,67.0,38.0,29.70,WNW,290,2.0,7.0,35,0.00,,,0.01,,2013-06-13 04:11:00,
2013-06-12 22:22:00,67.0,38.0,29.70,WNW,290,2.0,7.0,35,0.00,,,0.01,,2013-06-13 04:22:00,
2013-06-12 22:32:00,68.0,39.0,29.70,SW,226,10.0,19.0,34,0.00,,,0.01,,2013-06-13 04:32:00,
2013-06-12 22:43:00,67.0,38.0,29.70,SW,227,12.0,17.0,34,0.00,,,0.01,,2013-06-13 04:43:00,
2013-06-12 22:53:00,67.0,38.0,29.70,SW,227,12.0,17.0,34,0.00,,,0.01,,2013-06-13 04:53:00,
2013-06-12 23:02:00,67.0,38.0,29.70,SW,227,12.0,17.0,34,0.00,,,0.01,,2013-06-13 05:02:00,
2013-06-12 23:11:00,68.0,40.0,29.68,WSW,244,15.0,22.0,36,0.00,,,0.01,,2013-06-13 05:11:00,
2013-06-12 23:23:00,68.0,40.0,29.68,WSW,244,15.0,22.0,36,0.00,,,0.01,,2013-06-13 05:23:00,
2013-06-12 23:33:00,68.0,40.0,29.68,WSW,244,15.0,22.0,36,0.00,,,0.01,,2013-06-13 05:33:00,
2013-06-12 23:42:00,68.0,39.0,29.69,WSW,247,8.0,21.0,35,0.00,,,0.01,,2013-06-13 05:42:00,
2013-06-12 23:53:00,68.0,39.0,29.69,WSW,247,8.0,21.0,35,0.00,,,0.01,,2013-06-13 05:53:00,